createdAt,value
2017-01-15T00:00:22.580Z,929.87
2017-01-15T00:00:50.771Z,929.91
2017-01-15T00:01:18.963Z,929.88
2017-01-15T00:01:47.215Z,929.86
2017-01-15T00:02:15.403Z,929.91
2017-01-15T00:02:43.638Z,929.89
2017-01-15T00:03:11.801Z,929.9
2017-01-15T00:03:40.002Z,929.92
2017-01-15T00:04:08.199Z,929.97
2017-01-15T00:04:36.365Z,929.95
2017-01-15T00:05:04.742Z,929.97
2017-01-15T00:05:33.024Z,929.92
2017-01-15T00:06:01.217Z,929.98
2017-01-15T00:06:29.461Z,929.99
2017-01-15T00:06:57.638Z,929.94
2017-01-15T00:07:25.820Z,929.97
2017-01-15T00:07:54.075Z,929.96
2017-01-15T00:08:22.274Z,929.94
2017-01-15T00:08:50.440Z,929.91
2017-01-15T00:09:18.603Z,929.93
2017-01-15T00:09:46.865Z,929.91
2017-01-15T00:10:15.047Z,929.95
2017-01-15T00:10:43.233Z,929.94
2017-01-15T00:11:11.492Z,929.99
2017-01-15T00:11:39.661Z,929.97
2017-01-15T00:12:07.973Z,930.02
2017-01-15T00:12:36.146Z,930.04
2017-01-15T00:13:04.306Z,929.99
2017-01-15T00:13:32.482Z,930
2017-01-15T00:14:00.690Z,929.98
2017-01-15T00:14:28.951Z,930.03
2017-01-15T00:14:57.116Z,930.01
2017-01-15T00:15:25.294Z,929.97
2017-01-15T00:15:53.460Z,929.96
2017-01-15T00:16:21.634Z,929.94
2017-01-15T00:16:49.789Z,929.97
2017-01-15T00:17:17.998Z,929.96
2017-01-15T00:17:46.140Z,929.92
2017-01-15T00:18:14.329Z,929.96
2017-01-15T00:18:42.585Z,929.93
2017-01-15T00:19:10.855Z,929.97
2017-01-15T00:19:39.038Z,929.97
2017-01-15T00:20:07.288Z,929.97
2017-01-15T00:20:35.541Z,929.97
2017-01-15T00:21:03.757Z,930.01
2017-01-15T00:21:31.979Z,930.01
2017-01-15T00:22:00.149Z,930.03
2017-01-15T00:22:28.305Z,930.05
2017-01-15T00:22:56.496Z,930.04
2017-01-15T00:23:24.770Z,930.09
2017-01-15T00:23:52.936Z,930.09
2017-01-15T00:24:21.142Z,930.08
2017-01-15T00:24:49.327Z,930.07
2017-01-15T00:25:17.501Z,930.1
2017-01-15T00:25:45.709Z,930.09
2017-01-15T00:26:13.860Z,930.07
2017-01-15T00:26:42.035Z,930.09
2017-01-15T00:27:10.225Z,930.04
2017-01-15T00:27:38.367Z,930.06
2017-01-15T00:28:06.636Z,930.04
2017-01-15T00:28:34.910Z,930.05
2017-01-15T00:29:03.077Z,930.04
2017-01-15T00:29:31.352Z,930.04
2017-01-15T00:29:59.529Z,930.03
2017-01-15T00:30:27.721Z,930.05
2017-01-15T00:30:55.895Z,930.06
2017-01-15T00:31:24.046Z,930.09
2017-01-15T00:31:52.233Z,930.08
2017-01-15T00:32:20.470Z,930.09
2017-01-15T00:32:48.628Z,930.07
2017-01-15T00:33:16.803Z,930.03
2017-01-15T00:33:44.961Z,930.1
2017-01-15T00:34:13.128Z,930.02
2017-01-15T00:34:41.304Z,930.03
2017-01-15T00:35:09.443Z,930.09
2017-01-15T00:35:37.612Z,930.1
2017-01-15T00:36:05.774Z,930.06
2017-01-15T00:36:33.945Z,930.09
2017-01-15T00:37:02.128Z,930.08
2017-01-15T00:37:30.355Z,930.1
2017-01-15T00:37:58.521Z,930.1
2017-01-15T00:38:26.698Z,930.07
2017-01-15T00:38:54.957Z,930.12
2017-01-15T00:39:23.211Z,930.14
2017-01-15T00:39:51.499Z,930.19
2017-01-15T00:40:19.637Z,930.2
2017-01-15T00:40:47.809Z,930.2
2017-01-15T00:41:15.950Z,930.13
2017-01-15T00:41:44.159Z,930.17
2017-01-15T00:42:12.337Z,930.14
2017-01-15T00:42:40.509Z,930.16
2017-01-15T00:43:08.692Z,930.16
2017-01-15T00:43:36.871Z,930.1
2017-01-15T00:44:05.055Z,930.11
2017-01-15T00:44:33.239Z,930.1
2017-01-15T00:45:01.416Z,930.07
2017-01-15T00:45:29.676Z,930.14
2017-01-15T00:45:57.844Z,930.08
2017-01-15T00:46:26.033Z,930.04
2017-01-15T00:46:54.212Z,930.13
2017-01-15T00:47:22.444Z,930.07
2017-01-15T00:47:50.619Z,930.09
2017-01-15T00:48:18.788Z,930.08
2017-01-15T00:48:46.951Z,930.12
2017-01-15T00:49:15.131Z,930.12
2017-01-15T00:49:43.362Z,930.13
2017-01-15T00:50:11.573Z,930.08
2017-01-15T00:50:39.756Z,930.12
2017-01-15T00:51:07.919Z,930.09
2017-01-15T00:51:36.129Z,930.11
2017-01-15T00:52:04.328Z,930.15
2017-01-15T00:52:32.535Z,930.15
2017-01-15T00:53:00.703Z,930.16
2017-01-15T00:53:28.858Z,930.15
2017-01-15T00:53:57.026Z,930.2
2017-01-15T00:54:25.177Z,930.15
2017-01-15T00:54:53.328Z,930.16
2017-01-15T00:55:21.468Z,930.17
2017-01-15T00:55:49.653Z,930.15
2017-01-15T00:56:17.823Z,930.14
2017-01-15T00:56:46.000Z,930.19
2017-01-15T00:57:14.263Z,930.1
2017-01-15T00:57:42.439Z,930.16
2017-01-15T00:58:10.584Z,930.17
2017-01-15T00:58:38.755Z,930.2
2017-01-15T00:59:06.951Z,930.19
2017-01-15T00:59:35.108Z,930.18
2017-01-15T01:00:03.375Z,930.19
2017-01-15T01:00:31.563Z,930.25
2017-01-15T01:00:59.718Z,930.22
2017-01-15T01:01:27.960Z,930.26
2017-01-15T01:01:56.105Z,930.28
2017-01-15T01:02:24.306Z,930.29
2017-01-15T01:02:52.448Z,930.35
2017-01-15T01:03:20.695Z,930.35
2017-01-15T01:03:48.849Z,930.38
2017-01-15T01:04:17.013Z,930.42
2017-01-15T01:04:45.303Z,930.42
2017-01-15T01:05:13.492Z,930.44
2017-01-15T01:05:41.744Z,930.43
2017-01-15T01:06:09.993Z,930.46
2017-01-15T01:06:38.150Z,930.47
2017-01-15T01:07:06.391Z,930.49
2017-01-15T01:07:34.666Z,930.5
2017-01-15T01:08:02.965Z,930.46
2017-01-15T01:08:31.129Z,930.52
2017-01-15T01:08:59.310Z,930.48
2017-01-15T01:09:27.495Z,930.5
2017-01-15T01:09:55.654Z,930.5
2017-01-15T01:10:23.862Z,930.47
2017-01-15T01:10:52.039Z,930.5
2017-01-15T01:11:20.239Z,930.52
2017-01-15T01:11:48.538Z,930.48
2017-01-15T01:12:16.800Z,930.47
2017-01-15T01:12:44.965Z,930.48
2017-01-15T01:13:13.138Z,930.49
2017-01-15T01:13:41.289Z,930.47
2017-01-15T01:14:09.454Z,930.45
2017-01-15T01:14:37.609Z,930.5
2017-01-15T01:15:05.765Z,930.5
2017-01-15T01:15:33.956Z,930.51
2017-01-15T01:16:02.148Z,930.51
2017-01-15T01:16:30.411Z,930.55
2017-01-15T01:16:58.618Z,930.51
2017-01-15T01:17:26.765Z,930.52
2017-01-15T01:17:54.918Z,930.52
2017-01-15T01:18:23.197Z,930.53
2017-01-15T01:18:51.339Z,930.55
2017-01-15T01:19:19.533Z,930.55
2017-01-15T01:19:47.724Z,930.54
2017-01-15T01:20:16.076Z,930.53
2017-01-15T01:20:44.260Z,930.57
2017-01-15T01:21:12.532Z,930.54
2017-01-15T01:21:40.689Z,930.57
2017-01-15T01:22:08.884Z,930.54
2017-01-15T01:22:37.046Z,930.54
2017-01-15T01:23:05.313Z,930.51
2017-01-15T01:23:33.498Z,930.55
2017-01-15T01:24:01.663Z,930.52
2017-01-15T01:24:29.823Z,930.53
2017-01-15T01:24:58.003Z,930.54
2017-01-15T01:25:26.184Z,930.59
2017-01-15T01:25:54.352Z,930.59
2017-01-15T01:26:22.614Z,930.57
2017-01-15T01:26:50.770Z,930.61
2017-01-15T01:27:18.936Z,930.6
2017-01-15T01:27:47.108Z,930.58
2017-01-15T01:28:15.267Z,930.65
2017-01-15T01:28:43.442Z,930.63
2017-01-15T01:29:11.605Z,930.68
2017-01-15T01:29:39.768Z,930.63
2017-01-15T01:30:07.980Z,930.65
2017-01-15T01:30:36.172Z,930.67
2017-01-15T01:31:04.349Z,930.68
2017-01-15T01:31:32.536Z,930.67
2017-01-15T01:32:00.705Z,930.64
2017-01-15T01:32:28.969Z,930.64
2017-01-15T01:32:57.135Z,930.64
2017-01-15T01:33:25.313Z,930.61
2017-01-15T01:33:53.529Z,930.62
2017-01-15T01:34:21.702Z,930.64
2017-01-15T01:34:49.893Z,930.62
2017-01-15T01:35:18.173Z,930.63
2017-01-15T01:35:46.330Z,930.65
2017-01-15T01:36:14.502Z,930.64
2017-01-15T01:36:42.687Z,930.61
2017-01-15T01:37:10.876Z,930.63
2017-01-15T01:37:39.178Z,930.61
2017-01-15T01:38:07.365Z,930.61
2017-01-15T01:38:35.548Z,930.63
2017-01-15T01:39:03.750Z,930.58
2017-01-15T01:39:31.930Z,930.61
2017-01-15T01:40:00.094Z,930.63
2017-01-15T01:40:28.279Z,930.64
2017-01-15T01:40:56.432Z,930.66
2017-01-15T01:41:24.615Z,930.65
2017-01-15T01:41:52.795Z,930.64
2017-01-15T01:42:20.945Z,930.69
2017-01-15T01:42:49.124Z,930.69
2017-01-15T01:43:17.396Z,930.66
2017-01-15T01:43:45.588Z,930.69
2017-01-15T01:44:13.778Z,930.66
2017-01-15T01:44:41.955Z,930.64
2017-01-15T01:45:10.207Z,930.68
2017-01-15T01:45:38.372Z,930.64
2017-01-15T01:46:06.631Z,930.66
2017-01-15T01:46:34.918Z,930.66
2017-01-15T01:47:03.105Z,930.63
2017-01-15T01:47:31.289Z,930.6
2017-01-15T01:47:59.464Z,930.61
2017-01-15T01:48:27.829Z,930.63
2017-01-15T01:48:55.973Z,930.6
2017-01-15T01:49:24.145Z,930.61
2017-01-15T01:49:52.390Z,930.62
2017-01-15T01:50:20.628Z,930.6
2017-01-15T01:50:48.799Z,930.63
2017-01-15T01:51:16.957Z,930.57
2017-01-15T01:51:45.118Z,930.58
2017-01-15T01:52:13.364Z,930.56
2017-01-15T01:52:41.538Z,930.55
2017-01-15T01:53:09.804Z,930.55
2017-01-15T01:53:37.984Z,930.54
2017-01-15T01:54:06.162Z,930.55
2017-01-15T01:54:34.418Z,930.56
2017-01-15T01:55:02.585Z,930.55
2017-01-15T01:55:30.751Z,930.52
2017-01-15T01:55:59.012Z,930.53
2017-01-15T01:56:27.305Z,930.53
2017-01-15T01:56:55.466Z,930.51
2017-01-15T01:57:23.624Z,930.49
2017-01-15T01:57:51.805Z,930.51
2017-01-15T01:58:19.981Z,930.48
2017-01-15T01:58:48.154Z,930.46
2017-01-15T01:59:16.320Z,930.47
2017-01-15T01:59:44.597Z,930.45
2017-01-15T02:00:12.791Z,930.42
2017-01-15T02:00:41.043Z,930.41
2017-01-15T02:01:09.245Z,930.42
2017-01-15T02:01:37.447Z,930.39
2017-01-15T02:02:05.614Z,930.35
2017-01-15T02:02:33.887Z,930.34
2017-01-15T02:03:02.088Z,930.39
2017-01-15T02:03:30.241Z,930.34
2017-01-15T02:03:58.508Z,930.31
2017-01-15T02:04:27.817Z,930.34
2017-01-15T02:04:56.002Z,930.29
2017-01-15T02:05:24.157Z,930.3
2017-01-15T02:05:52.329Z,930.3
2017-01-15T02:06:20.572Z,930.22
2017-01-15T02:06:48.767Z,930.27
2017-01-15T02:07:16.929Z,930.27
2017-01-15T02:07:45.085Z,930.2
2017-01-15T02:08:13.263Z,930.26
2017-01-15T02:08:41.413Z,930.25
2017-01-15T02:09:09.551Z,930.18
2017-01-15T02:09:37.734Z,930.23
2017-01-15T02:10:05.918Z,930.21
2017-01-15T02:10:34.084Z,930.2
2017-01-15T02:11:02.348Z,930.16
2017-01-15T02:11:30.599Z,930.19
2017-01-15T02:11:58.857Z,930.14
2017-01-15T02:12:27.046Z,930.13
2017-01-15T02:12:55.267Z,930.14
2017-01-15T02:13:23.543Z,930.13
2017-01-15T02:13:51.723Z,930.11
2017-01-15T02:14:19.910Z,930.08
2017-01-15T02:14:48.071Z,930.05
2017-01-15T02:15:16.289Z,930.04
2017-01-15T02:15:44.472Z,930.02
2017-01-15T02:16:12.625Z,930
2017-01-15T02:16:40.793Z,929.98
2017-01-15T02:17:08.952Z,930
2017-01-15T02:17:37.113Z,929.97
2017-01-15T02:18:05.289Z,929.97
2017-01-15T02:18:33.461Z,930.01
2017-01-15T02:19:01.631Z,929.98
2017-01-15T02:19:29.782Z,930.01
2017-01-15T02:19:57.984Z,929.93
2017-01-15T02:20:26.234Z,929.97
2017-01-15T02:20:54.417Z,930
2017-01-15T02:21:22.599Z,929.95
2017-01-15T02:21:50.792Z,929.98
2017-01-15T02:22:18.969Z,929.99
2017-01-15T02:22:47.141Z,929.99
2017-01-15T02:23:15.325Z,929.97
2017-01-15T02:23:43.495Z,929.97
2017-01-15T02:24:11.667Z,930
2017-01-15T02:24:39.841Z,929.98
2017-01-15T02:25:08.005Z,930.02
2017-01-15T02:25:36.305Z,929.99
2017-01-15T02:26:04.482Z,929.97
2017-01-15T02:26:32.725Z,930
2017-01-15T02:27:00.915Z,929.94
2017-01-15T02:27:29.073Z,929.94
2017-01-15T02:27:57.265Z,929.94
2017-01-15T02:28:25.440Z,929.91
2017-01-15T02:28:53.621Z,929.95
2017-01-15T02:29:21.784Z,929.95
2017-01-15T02:29:50.088Z,929.94
2017-01-15T02:30:18.241Z,929.95
2017-01-15T02:30:46.410Z,929.91
2017-01-15T02:31:14.598Z,929.94
2017-01-15T02:31:42.804Z,929.91
2017-01-15T02:32:11.108Z,929.92
2017-01-15T02:32:39.401Z,929.91
2017-01-15T02:33:07.557Z,929.92
2017-01-15T02:33:35.716Z,929.88
2017-01-15T02:34:03.886Z,929.88
2017-01-15T02:34:32.181Z,929.9
2017-01-15T02:35:00.445Z,929.9
2017-01-15T02:35:28.603Z,929.9
2017-01-15T02:35:56.907Z,929.9
2017-01-15T02:36:25.185Z,929.9
2017-01-15T02:36:53.448Z,929.9
2017-01-15T02:37:21.624Z,929.89
2017-01-15T02:37:49.773Z,929.87
2017-01-15T02:38:18.134Z,929.93
2017-01-15T02:38:46.317Z,929.88
2017-01-15T02:39:14.513Z,929.88
2017-01-15T02:39:42.666Z,929.87
2017-01-15T02:40:10.869Z,929.82
2017-01-15T02:40:39.059Z,929.84
2017-01-15T02:41:07.243Z,929.8
2017-01-15T02:41:35.497Z,929.82
2017-01-15T02:42:03.683Z,929.77
2017-01-15T02:42:31.854Z,929.78
2017-01-15T02:43:00.116Z,929.73
2017-01-15T02:43:28.284Z,929.74
2017-01-15T02:43:56.453Z,929.7
2017-01-15T02:44:24.745Z,929.71
2017-01-15T02:44:52.919Z,929.72
2017-01-15T02:45:21.089Z,929.68
2017-01-15T02:45:49.265Z,929.73
2017-01-15T02:46:17.518Z,929.69
2017-01-15T02:46:45.704Z,929.73
2017-01-15T02:47:13.855Z,929.68
2017-01-15T02:47:42.028Z,929.69
2017-01-15T02:48:10.199Z,929.7
2017-01-15T02:48:38.362Z,929.7
2017-01-15T02:49:06.507Z,929.68
2017-01-15T02:49:34.655Z,929.73
2017-01-15T02:50:02.820Z,929.71
2017-01-15T02:50:30.983Z,929.7
2017-01-15T02:50:59.177Z,929.7
2017-01-15T02:51:27.492Z,929.71
2017-01-15T02:51:56.101Z,929.71
2017-01-15T02:52:25.044Z,929.7
2017-01-15T02:52:54.471Z,929.7
2017-01-15T02:53:23.441Z,929.68
2017-01-15T02:53:51.618Z,929.69
2017-01-15T02:54:19.868Z,929.64
2017-01-15T02:54:48.017Z,929.64
2017-01-15T02:55:16.209Z,929.68
2017-01-15T02:55:44.371Z,929.66
2017-01-15T02:56:12.538Z,929.67
2017-01-15T02:56:40.697Z,929.67
2017-01-15T02:57:08.945Z,929.66
2017-01-15T02:57:37.087Z,929.64
2017-01-15T02:58:05.269Z,929.68
2017-01-15T02:58:33.462Z,929.66
2017-01-15T02:59:01.633Z,929.65
2017-01-15T02:59:29.914Z,929.65
2017-01-15T02:59:58.117Z,929.67
2017-01-15T03:00:26.377Z,929.66
2017-01-15T03:00:54.590Z,929.64
2017-01-15T03:01:22.869Z,929.65
2017-01-15T03:01:51.040Z,929.62
2017-01-15T03:02:19.202Z,929.65
2017-01-15T03:02:47.387Z,929.66
2017-01-15T03:03:15.563Z,929.63
2017-01-15T03:03:43.730Z,929.66
2017-01-15T03:04:11.876Z,929.6
2017-01-15T03:04:40.074Z,929.66
2017-01-15T03:05:08.223Z,929.64
2017-01-15T03:05:36.398Z,929.64
2017-01-15T03:06:04.568Z,929.61
2017-01-15T03:06:32.709Z,929.61
2017-01-15T03:07:00.911Z,929.65
2017-01-15T03:07:29.068Z,929.64
2017-01-15T03:07:57.213Z,929.64
2017-01-15T03:08:25.465Z,929.59
2017-01-15T03:08:53.658Z,929.62
2017-01-15T03:09:21.827Z,929.64
2017-01-15T03:09:49.993Z,929.6
2017-01-15T03:10:18.272Z,929.61
2017-01-15T03:10:46.449Z,929.61
2017-01-15T03:11:14.625Z,929.54
2017-01-15T03:11:42.805Z,929.58
2017-01-15T03:12:11.043Z,929.57
2017-01-15T03:12:39.199Z,929.56
2017-01-15T03:13:07.374Z,929.58
2017-01-15T03:13:35.555Z,929.52
2017-01-15T03:14:03.753Z,929.53
2017-01-15T03:14:31.918Z,929.57
2017-01-15T03:15:00.100Z,929.53
2017-01-15T03:15:28.271Z,929.51
2017-01-15T03:15:56.534Z,929.52
2017-01-15T03:16:24.696Z,929.52
2017-01-15T03:16:52.848Z,929.55
2017-01-15T03:17:21.051Z,929.55
2017-01-15T03:17:49.216Z,929.55
2017-01-15T03:18:17.494Z,929.56
2017-01-15T03:18:45.661Z,929.56
2017-01-15T03:19:13.867Z,929.55
2017-01-15T03:19:42.058Z,929.54
2017-01-15T03:20:10.248Z,929.52
2017-01-15T03:20:38.427Z,929.52
2017-01-15T03:21:06.584Z,929.52
2017-01-15T03:21:34.748Z,929.49
2017-01-15T03:22:02.924Z,929.5
2017-01-15T03:22:31.089Z,929.48
2017-01-15T03:22:59.241Z,929.48
2017-01-15T03:23:27.409Z,929.51
2017-01-15T03:23:55.580Z,929.49
2017-01-15T03:24:23.748Z,929.52
2017-01-15T03:24:51.929Z,929.48
2017-01-15T03:25:20.232Z,929.46
2017-01-15T03:25:48.435Z,929.43
2017-01-15T03:26:16.625Z,929.51
2017-01-15T03:26:44.825Z,929.43
2017-01-15T03:27:13.014Z,929.43
2017-01-15T03:27:41.206Z,929.39
2017-01-15T03:28:09.384Z,929.4
2017-01-15T03:28:37.544Z,929.37
2017-01-15T03:29:05.710Z,929.38
2017-01-15T03:29:33.891Z,929.36
2017-01-15T03:30:02.073Z,929.31
2017-01-15T03:30:30.255Z,929.34
2017-01-15T03:30:58.429Z,929.32
2017-01-15T03:31:26.785Z,929.3
2017-01-15T03:31:54.936Z,929.32
2017-01-15T03:32:23.101Z,929.25
2017-01-15T03:32:51.309Z,929.3
2017-01-15T03:33:19.482Z,929.27
2017-01-15T03:33:47.782Z,929.28
2017-01-15T03:34:16.059Z,929.29
2017-01-15T03:34:44.251Z,929.29
2017-01-15T03:35:12.422Z,929.3
2017-01-15T03:35:40.694Z,929.33
2017-01-15T03:36:08.997Z,929.26
2017-01-15T03:36:37.209Z,929.27
2017-01-15T03:37:05.377Z,929.29
2017-01-15T03:37:33.539Z,929.33
2017-01-15T03:38:01.702Z,929.32
2017-01-15T03:38:29.878Z,929.29
2017-01-15T03:38:58.043Z,929.29
2017-01-15T03:39:26.250Z,929.29
2017-01-15T03:39:54.418Z,929.35
2017-01-15T03:40:22.609Z,929.32
2017-01-15T03:40:50.780Z,929.36
2017-01-15T03:41:19.128Z,929.3
2017-01-15T03:41:47.308Z,929.33
2017-01-15T03:42:15.558Z,929.3
2017-01-15T03:42:43.734Z,929.28
2017-01-15T03:43:11.893Z,929.28
2017-01-15T03:43:40.091Z,929.28
2017-01-15T03:44:08.255Z,929.27
2017-01-15T03:44:36.439Z,929.27
2017-01-15T03:45:04.598Z,929.25
2017-01-15T03:45:32.763Z,929.28
2017-01-15T03:46:00.958Z,929.29
2017-01-15T03:46:29.148Z,929.3
2017-01-15T03:46:57.415Z,929.29
2017-01-15T03:47:25.563Z,929.29
2017-01-15T03:47:53.721Z,929.28
2017-01-15T03:48:21.917Z,929.26
2017-01-15T03:48:50.109Z,929.26
2017-01-15T03:49:18.287Z,929.22
2017-01-15T03:49:46.459Z,929.18
2017-01-15T03:50:14.605Z,929.15
2017-01-15T03:50:42.818Z,929.14
2017-01-15T03:51:10.974Z,929.11
2017-01-15T03:51:39.272Z,929.1
2017-01-15T03:52:07.479Z,929.08
2017-01-15T03:52:35.696Z,929.05
2017-01-15T03:53:03.874Z,929.08
2017-01-15T03:53:32.044Z,929.08
2017-01-15T03:54:00.234Z,929.08
2017-01-15T03:54:28.399Z,929.07
2017-01-15T03:54:56.562Z,929.11
2017-01-15T03:55:24.710Z,929.09
2017-01-15T03:55:52.878Z,929.09
2017-01-15T03:56:21.125Z,929.13
2017-01-15T03:56:49.288Z,929.15
2017-01-15T03:57:17.472Z,929.13
2017-01-15T03:57:45.634Z,929.13
2017-01-15T03:58:13.796Z,929.14
2017-01-15T03:58:41.949Z,929.18
2017-01-15T03:59:10.114Z,929.15
2017-01-15T03:59:38.265Z,929.17
2017-01-15T04:00:06.533Z,929.15
2017-01-15T04:00:34.817Z,929.14
2017-01-15T04:01:02.999Z,929.13
2017-01-15T04:01:31.177Z,929.13
2017-01-15T04:01:59.353Z,929.12
2017-01-15T04:02:27.503Z,929.14
2017-01-15T04:02:55.754Z,929.07
2017-01-15T04:03:23.971Z,929.13
2017-01-15T04:03:52.149Z,929.12
2017-01-15T04:04:20.331Z,929.14
2017-01-15T04:04:48.519Z,929.13
2017-01-15T04:05:16.685Z,929.09
2017-01-15T04:05:44.898Z,929.09
2017-01-15T04:06:13.076Z,929.09
2017-01-15T04:06:41.212Z,929.14
2017-01-15T04:07:09.393Z,929.12
2017-01-15T04:07:37.567Z,929.12
2017-01-15T04:08:05.715Z,929.13
2017-01-15T04:08:33.899Z,929.12
2017-01-15T04:09:02.084Z,929.07
2017-01-15T04:09:30.335Z,929.05
2017-01-15T04:09:58.491Z,929.11
2017-01-15T04:10:26.635Z,929.08
2017-01-15T04:10:54.899Z,929.13
2017-01-15T04:11:23.089Z,929.09
2017-01-15T04:11:51.237Z,929.07
2017-01-15T04:12:19.395Z,929.07
2017-01-15T04:12:47.571Z,929.09
2017-01-15T04:13:15.751Z,929.04
2017-01-15T04:13:43.943Z,929.03
2017-01-15T04:14:12.105Z,929
2017-01-15T04:14:40.256Z,928.98
2017-01-15T04:15:08.461Z,928.98
2017-01-15T04:15:36.647Z,928.95
2017-01-15T04:16:06.662Z,928.97
2017-01-15T04:16:34.822Z,928.96
2017-01-15T04:17:03.012Z,928.93
2017-01-15T04:17:31.405Z,928.96
2017-01-15T04:17:59.690Z,928.96
2017-01-15T04:18:27.872Z,928.97
2017-01-15T04:18:56.141Z,928.99
2017-01-15T04:19:24.323Z,928.97
2017-01-15T04:19:52.477Z,928.98
2017-01-15T04:20:20.648Z,928.95
2017-01-15T04:20:48.784Z,928.99
2017-01-15T04:21:16.940Z,928.93
2017-01-15T04:21:45.131Z,928.96
2017-01-15T04:22:13.287Z,928.95
2017-01-15T04:22:41.471Z,928.97
2017-01-15T04:23:09.659Z,928.97
2017-01-15T04:23:37.839Z,928.93
2017-01-15T04:24:05.996Z,928.94
2017-01-15T04:24:34.163Z,928.94
2017-01-15T04:25:02.356Z,928.89
2017-01-15T04:25:30.519Z,928.92
2017-01-15T04:25:58.695Z,928.94
2017-01-15T04:26:26.882Z,928.95
2017-01-15T04:26:55.046Z,928.97
2017-01-15T04:27:23.227Z,928.96
2017-01-15T04:27:51.400Z,928.94
2017-01-15T04:28:19.665Z,928.94
2017-01-15T04:28:47.823Z,928.97
2017-01-15T04:29:16.018Z,928.96
2017-01-15T04:29:44.157Z,928.97
2017-01-15T04:30:12.429Z,928.97
2017-01-15T04:30:40.594Z,928.99
2017-01-15T04:31:08.773Z,928.94
2017-01-15T04:31:36.989Z,928.97
2017-01-15T04:32:05.306Z,928.95
2017-01-15T04:32:33.473Z,928.94
2017-01-15T04:33:01.717Z,928.94
2017-01-15T04:33:29.856Z,928.96
2017-01-15T04:33:58.037Z,928.95
2017-01-15T04:34:26.232Z,928.9
2017-01-15T04:34:54.399Z,928.92
2017-01-15T04:35:22.666Z,928.92
2017-01-15T04:35:50.801Z,928.94
2017-01-15T04:36:18.981Z,928.91
2017-01-15T04:36:47.149Z,928.9
2017-01-15T04:37:18.386Z,928.89
2017-01-15T04:37:47.036Z,928.89
2017-01-15T04:38:15.178Z,928.88
2017-01-15T04:38:43.330Z,928.91
2017-01-15T04:39:11.501Z,928.87
2017-01-15T04:39:39.714Z,928.84
2017-01-15T04:40:07.873Z,928.86
2017-01-15T04:40:36.086Z,928.84
2017-01-15T04:41:04.265Z,928.82
2017-01-15T04:41:32.425Z,928.81
2017-01-15T04:42:00.646Z,928.77
2017-01-15T04:42:28.819Z,928.82
2017-01-15T04:42:56.972Z,928.83
2017-01-15T04:43:25.155Z,928.83
2017-01-15T04:43:53.329Z,928.8
2017-01-15T04:44:21.514Z,928.82
2017-01-15T04:44:49.689Z,928.8
2017-01-15T04:45:17.874Z,928.84
2017-01-15T04:45:46.019Z,928.82
2017-01-15T04:46:14.167Z,928.8
2017-01-15T04:46:42.351Z,928.75
2017-01-15T04:47:10.513Z,928.8
2017-01-15T04:47:38.692Z,928.79
2017-01-15T04:48:06.914Z,928.77
2017-01-15T04:48:35.081Z,928.75
2017-01-15T04:49:04.841Z,928.78
2017-01-15T04:49:33.028Z,928.76
2017-01-15T04:50:01.182Z,928.74
2017-01-15T04:50:29.385Z,928.74
2017-01-15T04:50:57.545Z,928.75
2017-01-15T04:51:25.698Z,928.74
2017-01-15T04:51:53.870Z,928.76
2017-01-15T04:52:22.343Z,928.74
2017-01-15T04:52:50.510Z,928.75
2017-01-15T04:53:18.673Z,928.75
2017-01-15T04:53:46.949Z,928.72
2017-01-15T04:54:15.221Z,928.73
2017-01-15T04:54:43.422Z,928.77
2017-01-15T04:55:11.579Z,928.75
2017-01-15T04:55:39.767Z,928.73
2017-01-15T04:56:07.911Z,928.77
2017-01-15T04:56:36.115Z,928.74
2017-01-15T04:57:04.300Z,928.75
2017-01-15T04:57:32.458Z,928.73
2017-01-15T04:58:00.797Z,928.74
2017-01-15T04:58:29.046Z,928.71
2017-01-15T04:58:57.221Z,928.76
2017-01-15T04:59:25.446Z,928.74
2017-01-15T04:59:53.617Z,928.74
2017-01-15T05:00:21.789Z,928.73
2017-01-15T05:00:49.975Z,928.76
2017-01-15T05:01:18.144Z,928.78
2017-01-15T05:01:46.312Z,928.79
2017-01-15T05:02:14.594Z,928.74
2017-01-15T05:02:42.779Z,928.77
2017-01-15T05:03:10.933Z,928.81
2017-01-15T05:03:39.156Z,928.8
2017-01-15T05:04:07.438Z,928.77
2017-01-15T05:04:35.637Z,928.78
2017-01-15T05:05:03.815Z,928.77
2017-01-15T05:05:31.994Z,928.79
2017-01-15T05:06:00.167Z,928.8
2017-01-15T05:06:28.339Z,928.79
2017-01-15T05:06:56.498Z,928.77
2017-01-15T05:07:24.685Z,928.8
2017-01-15T05:07:52.866Z,928.79
2017-01-15T05:08:21.054Z,928.76
2017-01-15T05:08:49.198Z,928.78
2017-01-15T05:09:17.347Z,928.79
2017-01-15T05:09:45.525Z,928.78
2017-01-15T05:10:13.674Z,928.81
2017-01-15T05:10:41.871Z,928.79
2017-01-15T05:11:10.080Z,928.8
2017-01-15T05:11:38.256Z,928.79
2017-01-15T05:12:06.427Z,928.76
2017-01-15T05:12:34.584Z,928.77
2017-01-15T05:13:02.855Z,928.76
2017-01-15T05:13:31.013Z,928.75
2017-01-15T05:13:59.194Z,928.76
2017-01-15T05:14:27.367Z,928.76
2017-01-15T05:14:55.528Z,928.74
2017-01-15T05:15:23.729Z,928.73
2017-01-15T05:15:51.893Z,928.73
2017-01-15T05:16:20.098Z,928.71
2017-01-15T05:16:48.257Z,928.73
2017-01-15T05:17:16.456Z,928.71
2017-01-15T05:17:44.623Z,928.71
2017-01-15T05:18:12.804Z,928.7
2017-01-15T05:18:40.952Z,928.7
2017-01-15T05:19:09.122Z,928.7
2017-01-15T05:19:37.319Z,928.72
2017-01-15T05:20:05.504Z,928.71
2017-01-15T05:20:33.647Z,928.69
2017-01-15T05:21:01.814Z,928.68
2017-01-15T05:21:29.968Z,928.68
2017-01-15T05:21:58.141Z,928.69
2017-01-15T05:22:26.292Z,928.7
2017-01-15T05:22:54.464Z,928.71
2017-01-15T05:23:22.630Z,928.69
2017-01-15T05:23:50.808Z,928.71
2017-01-15T05:24:19.000Z,928.69
2017-01-15T05:24:47.169Z,928.67
2017-01-15T05:25:15.340Z,928.7
2017-01-15T05:25:43.515Z,928.68
2017-01-15T05:26:11.681Z,928.66
2017-01-15T05:26:39.878Z,928.63
2017-01-15T05:27:08.017Z,928.66
2017-01-15T05:27:36.173Z,928.65
2017-01-15T05:28:04.424Z,928.64
2017-01-15T05:28:32.594Z,928.64
2017-01-15T05:29:00.762Z,928.6
2017-01-15T05:29:28.955Z,928.64
2017-01-15T05:29:57.118Z,928.65
2017-01-15T05:30:25.312Z,928.63
2017-01-15T05:30:53.521Z,928.63
2017-01-15T05:31:21.760Z,928.65
2017-01-15T05:31:49.949Z,928.66
2017-01-15T05:32:18.215Z,928.63
2017-01-15T05:32:46.372Z,928.64
2017-01-15T05:33:14.540Z,928.66
2017-01-15T05:33:42.734Z,928.65
2017-01-15T05:34:10.871Z,928.68
2017-01-15T05:34:39.035Z,928.66
2017-01-15T05:35:07.195Z,928.67
2017-01-15T05:35:35.387Z,928.67
2017-01-15T05:36:03.583Z,928.64
2017-01-15T05:36:31.823Z,928.61
2017-01-15T05:37:00.080Z,928.6
2017-01-15T05:37:28.263Z,928.62
2017-01-15T05:37:56.415Z,928.61
2017-01-15T05:38:24.595Z,928.63
2017-01-15T05:38:52.746Z,928.62
2017-01-15T05:39:20.926Z,928.59
2017-01-15T05:39:49.068Z,928.64
2017-01-15T05:40:17.253Z,928.61
2017-01-15T05:40:45.410Z,928.6
2017-01-15T05:41:13.607Z,928.63
2017-01-15T05:41:41.782Z,928.62
2017-01-15T05:42:09.969Z,928.64
2017-01-15T05:42:38.209Z,928.63
2017-01-15T05:43:06.560Z,928.61
2017-01-15T05:43:34.737Z,928.61
2017-01-15T05:44:02.904Z,928.61
2017-01-15T05:44:31.081Z,928.58
2017-01-15T05:44:59.257Z,928.6
2017-01-15T05:45:27.529Z,928.6
2017-01-15T05:45:55.721Z,928.55
2017-01-15T05:46:23.872Z,928.58
2017-01-15T05:46:52.047Z,928.58
2017-01-15T05:47:20.205Z,928.6
2017-01-15T05:47:48.384Z,928.56
2017-01-15T05:48:16.560Z,928.56
2017-01-15T05:48:44.741Z,928.53
2017-01-15T05:49:12.943Z,928.58
2017-01-15T05:49:41.144Z,928.58
2017-01-15T05:50:09.325Z,928.58
2017-01-15T05:50:37.598Z,928.57
2017-01-15T05:51:05.778Z,928.56
2017-01-15T05:51:33.950Z,928.51
2017-01-15T05:52:02.147Z,928.55
2017-01-15T05:52:30.338Z,928.56
2017-01-15T05:52:58.519Z,928.56
2017-01-15T05:53:26.681Z,928.53